Chitose — JD2925 — position and weather

sailwx.info

Track history (hours):
 
Tides and Currents Weather Stations Pressure Air Temp Water Temp Dewpoint Dewpoint Depression Visibility Wind Speed Wind Dir Waves Ship Positions

Chitose

Last reported at 2017-Mar-28 08:34 UTC. Time now 2017-Mar-28 08:32 UTC.
Position N 35°23' E 139°42'.

Length 33 m; draft 3.8 m.

Type: Tug. MMSI: 431000953.

Date/timePositionNaut miles runAvg speedWind from/ knotsBaromVisibWave heightAir tempDewpointWater temp
2017-Mar-28 08:34N 35°23' E 139°42'3 3.4
2017-Mar-28 07:34N 35°27' E 139°42'0 0.0
2017-Mar-28 06:34N 35°27' E 139°42'0 0.0
2017-Mar-28 05:33N 35°27' E 139°42'0 0.0
2017-Mar-28 04:34N 35°27' E 139°42'0 0.0
2017-Mar-28 03:34N 35°27' E 139°42'1 1.0
2017-Mar-28 02:34N 35°27' E 139°41'1 1.2
2017-Mar-28 01:33N 35°27' E 139°39'0 0.0
2017-Mar-28 00:33N 35°27' E 139°39'0 0.1
2017-Mar-27 23:34N 35°27' E 139°39'3 2.8
2017-Mar-27 22:34N 35°27' E 139°43'0 0.1
2017-Mar-27 21:34N 35°27' E 139°43'3 3.5
2017-Mar-27 20:34N 35°27' E 139°39'0 0.0
2017-Mar-27 09:14N 35°27' E 139°39'6 8.7
2017-Mar-27 08:34N 35°30' E 139°45'0 0.1
2017-Mar-27 07:34N 35°30' E 139°45'4 4.0
2017-Mar-27 06:34N 35°26' E 139°44'3 3.5
2017-Mar-27 05:33N 35°28' E 139°40'1 1.2
2017-Mar-27 04:34N 35°27' E 139°39'0 0.0
2017-Mar-27 03:33N 35°27' E 139°39'0 0.0
2017-Mar-27 02:34N 35°27' E 139°39'0 0.0
2017-Mar-27 01:33N 35°27' E 139°39'4 3.6
2017-Mar-27 00:34N 35°29' E 139°42'2 2.1
2017-Mar-26 23:34N 35°30' E 139°45'3 3.2
2017-Mar-26 22:33N 35°28' E 139°42'2 1.7
2017-Mar-26 21:33N 35°26' E 139°44'4 4.3
2017-Mar-26 20:34N 35°27' E 139°39'0 0.0
2017-Mar-25 09:33N 35°27' E 139°39'3 2.5
2017-Mar-25 08:33N 35°25' E 139°41'2 2.0
2017-Mar-25 07:33N 35°27' E 139°39'0 0.0
2017-Mar-25 06:33N 35°27' E 139°39'0 0.0
2017-Mar-25 05:33N 35°27' E 139°39'0 0.0
2017-Mar-25 04:33N 35°27' E 139°39'0 0.0
2017-Mar-25 03:33N 35°27' E 139°39'0 0.0
2017-Mar-25 02:33N 35°27' E 139°39'2 1.6
2017-Mar-25 01:33N 35°27' E 139°41'1 1.2
2017-Mar-25 00:33N 35°26' E 139°42'0 0.0
2017-Mar-24 23:33N 35°26' E 139°42'0 0.0
2017-Mar-24 22:33N 35°26' E 139°42'1 0.8
2017-Mar-24 21:33N 35°26' E 139°41'2 2.1
2017-Mar-24 20:33N 35°27' E 139°39'0 0.0
2017-Mar-24 09:16N 35°27' E 139°39'2 2.9
2017-Mar-24 08:33N 35°26' E 139°41'0 0.0
2017-Mar-24 07:33N 35°26' E 139°41'1 1.4
2017-Mar-24 06:33N 35°27' E 139°39'0 0.0
2017-Mar-24 05:33N 35°27' E 139°39'0 0.0
2017-Mar-24 04:33N 35°27' E 139°39'0 0.0
2017-Mar-24 03:33N 35°27' E 139°39'6 5.6
2017-Mar-24 02:33N 35°30' E 139°46'0 0.1
2017-Mar-24 01:33N 35°29' E 139°46'1 1.4
2017-Mar-24 00:33N 35°28' E 139°46'6 6.0
2017-Mar-23 23:33N 35°27' E 139°39'0 0.0
2017-Mar-23 22:33N 35°27' E 139°39'1 0.0
2017-Mar-22 23:33N 35°27' E 139°40'2 2.3
2017-Mar-22 22:33N 35°26' E 139°42'1 0.6
2017-Mar-22 21:33N 35°27' E 139°42'0 0.0
2017-Mar-22 20:33N 35°27' E 139°42'1 1.1
2017-Mar-22 19:33N 35°26' E 139°41'1 0.9
2017-Mar-22 18:33N 35°27' E 139°42'0 0.0
2017-Mar-22 17:33N 35°27' E 139°42'0 0.0
2017-Mar-22 16:33N 35°27' E 139°42'0 0.0
2017-Mar-22 15:33N 35°27' E 139°42'0 0.0
2017-Mar-22 14:33N 35°27' E 139°42'0 0.0
2017-Mar-22 13:33N 35°27' E 139°42'0 0.0
2017-Mar-22 12:33N 35°27' E 139°42'0 0.0
2017-Mar-22 11:33N 35°27' E 139°42'1 0.9
2017-Mar-22 10:33N 35°26' E 139°41'2 2.0
2017-Mar-22 09:33N 35°26' E 139°43'1 1.2
2017-Mar-22 08:33N 35°26' E 139°42'0 0.0
2017-Mar-22 07:33N 35°26' E 139°42'1 1.3
2017-Mar-22 06:33N 35°27' E 139°40'2 1.6
2017-Mar-22 05:33N 35°27' E 139°39'0 0.0
2017-Mar-22 04:33N 35°27' E 139°39'0 0.0
2017-Mar-22 03:33N 35°27' E 139°39'0 0.0
2017-Mar-22 02:33N 35°27' E 139°39'0 0.0
2017-Mar-22 01:33N 35°27' E 139°39'0 0.0
2017-Mar-22 00:33N 35°27' E 139°39'0 0.0
2017-Mar-21 23:33N 35°27' E 139°39'0 0.0
2017-Mar-21 07:04N 35°27' E 139°39'0 0.0
2017-Mar-21 06:34N 35°27' E 139°39'0 0.0
2017-Mar-21 05:34N 35°27' E 139°39'0 0.0
2017-Mar-21 04:33N 35°27' E 139°39'0 0.0
2017-Mar-21 03:33N 35°27' E 139°39'0 0.0
2017-Mar-21 02:33N 35°27' E 139°39'0 0.4
2017-Mar-21 01:33N 35°27' E 139°39'7 6.8
2017-Mar-21 00:33N 35°31' E 139°46'4 4.2
2017-Mar-20 23:33N 35°29' E 139°42'1 1.0
2017-Mar-20 22:33N 35°28' E 139°41'2 0.0
2017-Mar-19 07:33N 35°27' E 139°40'0 0.0
2017-Mar-19 06:33N 35°27' E 139°40'0 0.0
2017-Mar-19 05:33N 35°27' E 139°40'0 0.0
2017-Mar-19 04:33N 35°27' E 139°40'0 0.0
2017-Mar-19 03:33N 35°27' E 139°40'0 0.0
2017-Mar-19 02:33N 35°27' E 139°40'2 2.1
2017-Mar-19 01:33N 35°26' E 139°42'4 3.6
2017-Mar-19 00:34N 35°24' E 139°38'3 2.9
2017-Mar-18 23:34N 35°24' E 139°41'4 3.6
2017-Mar-18 22:33N 35°27' E 139°40'  
Track history (hours):
 
Tides and Currents Weather Stations Pressure Air Temp Water Temp Dewpoint Dewpoint Depression Visibility Wind Speed Wind Dir Waves Ship Positions

Chitose

Last reported at 2017-Mar-28 08:34 UTC. Time now 2017-Mar-28 08:32 UTC.
Position N 35°23' E 139°42'.

Length 33 m; draft 3.8 m.

Type: Tug. MMSI: 431000953.

Date/timePositionNaut miles runAvg speedWind from/ knotsBaromVisibWave heightAir tempDewpointWater temp
2017-Mar-28 08:34N 35°23' E 139°42'3 3.4
2017-Mar-28 07:34N 35°27' E 139°42'0 0.0
2017-Mar-28 06:34N 35°27' E 139°42'0 0.0
2017-Mar-28 05:33N 35°27' E 139°42'0 0.0
2017-Mar-28 04:34N 35°27' E 139°42'0 0.0
2017-Mar-28 03:34N 35°27' E 139°42'1 1.0
2017-Mar-28 02:34N 35°27' E 139°41'1 1.2
2017-Mar-28 01:33N 35°27' E 139°39'0 0.0
2017-Mar-28 00:33N 35°27' E 139°39'0 0.1
2017-Mar-27 23:34N 35°27' E 139°39'3 2.8
2017-Mar-27 22:34N 35°27' E 139°43'0 0.1
2017-Mar-27 21:34N 35°27' E 139°43'3 3.5
2017-Mar-27 20:34N 35°27' E 139°39'0 0.0
2017-Mar-27 09:14N 35°27' E 139°39'6 8.7
2017-Mar-27 08:34N 35°30' E 139°45'0 0.1
2017-Mar-27 07:34N 35°30' E 139°45'4 4.0
2017-Mar-27 06:34N 35°26' E 139°44'3 3.5
2017-Mar-27 05:33N 35°28' E 139°40'1 1.2
2017-Mar-27 04:34N 35°27' E 139°39'0 0.0
2017-Mar-27 03:33N 35°27' E 139°39'0 0.0
2017-Mar-27 02:34N 35°27' E 139°39'0 0.0
2017-Mar-27 01:33N 35°27' E 139°39'4 3.6
2017-Mar-27 00:34N 35°29' E 139°42'2 2.1
2017-Mar-26 23:34N 35°30' E 139°45'3 3.2
2017-Mar-26 22:33N 35°28' E 139°42'2 1.7
2017-Mar-26 21:33N 35°26' E 139°44'4 4.3
2017-Mar-26 20:34N 35°27' E 139°39'0 0.0
2017-Mar-25 09:33N 35°27' E 139°39'3 2.5
2017-Mar-25 08:33N 35°25' E 139°41'2 2.0
2017-Mar-25 07:33N 35°27' E 139°39'0 0.0
2017-Mar-25 06:33N 35°27' E 139°39'0 0.0
2017-Mar-25 05:33N 35°27' E 139°39'0 0.0
2017-Mar-25 04:33N 35°27' E 139°39'0 0.0
2017-Mar-25 03:33N 35°27' E 139°39'0 0.0
2017-Mar-25 02:33N 35°27' E 139°39'2 1.6
2017-Mar-25 01:33N 35°27' E 139°41'1 1.2
2017-Mar-25 00:33N 35°26' E 139°42'0 0.0
2017-Mar-24 23:33N 35°26' E 139°42'0 0.0
2017-Mar-24 22:33N 35°26' E 139°42'1 0.8
2017-Mar-24 21:33N 35°26' E 139°41'2 2.1
2017-Mar-24 20:33N 35°27' E 139°39'0 0.0
2017-Mar-24 09:16N 35°27' E 139°39'2 2.9
2017-Mar-24 08:33N 35°26' E 139°41'0 0.0
2017-Mar-24 07:33N 35°26' E 139°41'1 1.4
2017-Mar-24 06:33N 35°27' E 139°39'0 0.0
2017-Mar-24 05:33N 35°27' E 139°39'0 0.0
2017-Mar-24 04:33N 35°27' E 139°39'0 0.0
2017-Mar-24 03:33N 35°27' E 139°39'6 5.6
2017-Mar-24 02:33N 35°30' E 139°46'0 0.1
2017-Mar-24 01:33N 35°29' E 139°46'1 1.4
2017-Mar-24 00:33N 35°28' E 139°46'6 6.0
2017-Mar-23 23:33N 35°27' E 139°39'0 0.0
2017-Mar-23 22:33N 35°27' E 139°39'1 0.0
2017-Mar-22 23:33N 35°27' E 139°40'2 2.3
2017-Mar-22 22:33N 35°26' E 139°42'1 0.6
2017-Mar-22 21:33N 35°27' E 139°42'0 0.0
2017-Mar-22 20:33N 35°27' E 139°42'1 1.1
2017-Mar-22 19:33N 35°26' E 139°41'1 0.9
2017-Mar-22 18:33N 35°27' E 139°42'0 0.0
2017-Mar-22 17:33N 35°27' E 139°42'0 0.0
2017-Mar-22 16:33N 35°27' E 139°42'0 0.0
2017-Mar-22 15:33N 35°27' E 139°42'0 0.0
2017-Mar-22 14:33N 35°27' E 139°42'0 0.0
2017-Mar-22 13:33N 35°27' E 139°42'0 0.0
2017-Mar-22 12:33N 35°27' E 139°42'0 0.0
2017-Mar-22 11:33N 35°27' E 139°42'1 0.9
2017-Mar-22 10:33N 35°26' E 139°41'2 2.0
2017-Mar-22 09:33N 35°26' E 139°43'1 1.2
2017-Mar-22 08:33N 35°26' E 139°42'0 0.0
2017-Mar-22 07:33N 35°26' E 139°42'1 1.3
2017-Mar-22 06:33N 35°27' E 139°40'2 1.6
2017-Mar-22 05:33N 35°27' E 139°39'0 0.0
2017-Mar-22 04:33N 35°27' E 139°39'0 0.0
2017-Mar-22 03:33N 35°27' E 139°39'0 0.0
2017-Mar-22 02:33N 35°27' E 139°39'0 0.0
2017-Mar-22 01:33N 35°27' E 139°39'0 0.0
2017-Mar-22 00:33N 35°27' E 139°39'0 0.0
2017-Mar-21 23:33N 35°27' E 139°39'0 0.0
2017-Mar-21 07:04N 35°27' E 139°39'0 0.0
2017-Mar-21 06:34N 35°27' E 139°39'0 0.0
2017-Mar-21 05:34N 35°27' E 139°39'0 0.0
2017-Mar-21 04:33N 35°27' E 139°39'0 0.0
2017-Mar-21 03:33N 35°27' E 139°39'0 0.0
2017-Mar-21 02:33N 35°27' E 139°39'0 0.4
2017-Mar-21 01:33N 35°27' E 139°39'7 6.8
2017-Mar-21 00:33N 35°31' E 139°46'4 4.2
2017-Mar-20 23:33N 35°29' E 139°42'1 1.0
2017-Mar-20 22:33N 35°28' E 139°41'2 0.0
2017-Mar-19 07:33N 35°27' E 139°40'0 0.0
2017-Mar-19 06:33N 35°27' E 139°40'0 0.0
2017-Mar-19 05:33N 35°27' E 139°40'0 0.0
2017-Mar-19 04:33N 35°27' E 139°40'0 0.0
2017-Mar-19 03:33N 35°27' E 139°40'0 0.0
2017-Mar-19 02:33N 35°27' E 139°40'2 2.1
2017-Mar-19 01:33N 35°26' E 139°42'4 3.6
2017-Mar-19 00:34N 35°24' E 139°38'3 2.9
2017-Mar-18 23:34N 35°24' E 139°41'4 3.6
2017-Mar-18 22:33N 35°27' E 139°40'  

Dump ship's entire track history